createdAt,value
2018-04-30T00:00:21.152Z,0
2018-04-30T00:01:31.455Z,0
2018-04-30T00:02:41.633Z,0
2018-04-30T00:03:51.814Z,0
2018-04-30T00:05:01.957Z,0
2018-04-30T00:06:12.103Z,0
2018-04-30T00:07:22.237Z,0
2018-04-30T00:08:32.382Z,0
2018-04-30T00:09:42.525Z,0
2018-04-30T00:10:52.696Z,0
2018-04-30T00:12:02.928Z,0
2018-04-30T00:13:13.152Z,0
2018-04-30T00:14:23.444Z,0
2018-04-30T00:15:33.124Z,0
2018-04-30T00:16:43.024Z,0
2018-04-30T00:17:53.169Z,0
2018-04-30T00:19:03.324Z,0
2018-04-30T00:20:13.571Z,0
2018-04-30T00:21:23.844Z,0
2018-04-30T00:22:34.024Z,0
2018-04-30T00:23:44.219Z,0
2018-04-30T00:24:54.449Z,0
2018-04-30T00:26:04.329Z,0
2018-04-30T00:27:14.463Z,0
2018-04-30T00:28:24.693Z,0
2018-04-30T00:29:34.864Z,0
2018-04-30T00:30:45.042Z,0
2018-04-30T00:31:55.248Z,0
2018-04-30T00:33:05.420Z,0
2018-04-30T00:34:15.251Z,0
2018-04-30T00:35:24.617Z,0
2018-04-30T00:36:34.743Z,0
2018-04-30T00:37:44.346Z,0
2018-04-30T00:38:53.852Z,0
2018-04-30T00:40:04.036Z,0
2018-04-30T00:41:14.223Z,0
2018-04-30T00:42:24.149Z,0
2018-04-30T00:43:34.293Z,0
2018-04-30T00:44:44.427Z,0
2018-04-30T00:45:54.580Z,0
2018-04-30T00:47:04.755Z,0
2018-04-30T00:48:14.960Z,0
2018-04-30T00:49:25.173Z,0
2018-04-30T00:50:35.416Z,0
2018-04-30T00:51:45.671Z,0
2018-04-30T00:52:55.943Z,0
2018-04-30T00:54:05.858Z,0
2018-04-30T00:55:15.972Z,0
2018-04-30T00:56:26.171Z,0
2018-04-30T00:57:36.320Z,0
2018-04-30T00:58:46.268Z,0
2018-04-30T00:59:56.392Z,0
2018-04-30T01:01:06.521Z,0
2018-04-30T01:02:16.818Z,0
2018-04-30T01:03:27.151Z,0
2018-04-30T01:04:37.065Z,0
2018-04-30T01:05:47.267Z,0
2018-04-30T01:06:57.533Z,0
2018-04-30T01:08:07.778Z,0
2018-04-30T01:09:18.009Z,0
2018-04-30T01:10:28.303Z,0
2018-04-30T01:11:38.479Z,0
2018-04-30T01:12:48.604Z,0
2018-04-30T01:13:58.834Z,0
2018-04-30T01:15:09.023Z,0
2018-04-30T01:16:19.254Z,0
2018-04-30T01:17:29.541Z,0
2018-04-30T01:18:39.858Z,0
2018-04-30T01:19:50.018Z,0
2018-04-30T01:21:00.248Z,0
2018-04-30T01:22:10.427Z,0
2018-04-30T01:23:20.600Z,0
2018-04-30T01:24:30.753Z,0
2018-04-30T01:25:40.976Z,0
2018-04-30T01:26:51.127Z,0
2018-04-30T01:28:01.266Z,0
2018-04-30T01:29:11.407Z,0
2018-04-30T01:30:21.540Z,0
2018-04-30T01:31:31.692Z,0
2018-04-30T01:32:41.839Z,0
2018-04-30T01:33:52.222Z,0
2018-04-30T01:35:02.192Z,0
2018-04-30T01:36:12.371Z,0
2018-04-30T01:37:22.148Z,0
2018-04-30T01:38:32.018Z,0
2018-04-30T01:39:42.159Z,0
2018-04-30T01:40:51.784Z,0
2018-04-30T01:42:01.936Z,0
2018-04-30T01:43:12.116Z,0
2018-04-30T01:44:22.281Z,0
2018-04-30T01:45:33.410Z,0
2018-04-30T01:46:43.538Z,0
2018-04-30T01:47:53.676Z,0
2018-04-30T01:49:03.802Z,0
2018-04-30T01:50:13.665Z,0
2018-04-30T01:51:23.493Z,0
2018-04-30T01:52:33.682Z,0
2018-04-30T01:53:43.863Z,0
2018-04-30T01:54:54.000Z,0
2018-04-30T01:56:04.160Z,0
2018-04-30T01:57:14.293Z,0
2018-04-30T01:58:24.431Z,0
2018-04-30T01:59:34.578Z,0
2018-04-30T02:00:44.771Z,0
2018-04-30T02:01:54.993Z,0
2018-04-30T02:03:05.195Z,0
2018-04-30T02:04:15.520Z,0
2018-04-30T02:05:25.655Z,0
2018-04-30T02:06:35.791Z,0
2018-04-30T02:07:45.919Z,0
2018-04-30T02:08:56.059Z,0
2018-04-30T02:10:06.213Z,0
2018-04-30T02:11:16.380Z,0
2018-04-30T02:12:26.601Z,0
2018-04-30T02:13:36.861Z,0
2018-04-30T02:14:46.641Z,0
2018-04-30T02:15:56.792Z,0
2018-04-30T02:17:06.946Z,0
2018-04-30T02:18:17.110Z,0
2018-04-30T02:19:27.371Z,0
2018-04-30T02:20:37.600Z,0
2018-04-30T02:21:47.489Z,0
2018-04-30T02:22:57.652Z,0
2018-04-30T02:24:07.795Z,0
2018-04-30T02:25:17.936Z,0
2018-04-30T02:26:28.080Z,0
2018-04-30T02:27:38.233Z,0
2018-04-30T02:28:48.017Z,0
2018-04-30T02:29:58.158Z,0
2018-04-30T02:31:08.145Z,0
2018-04-30T02:32:18.086Z,0
2018-04-30T02:33:28.267Z,0
2018-04-30T02:34:38.182Z,0
2018-04-30T02:35:48.304Z,0
2018-04-30T02:36:58.487Z,0
2018-04-30T02:38:08.686Z,0
2018-04-30T02:39:18.828Z,0
2018-04-30T02:40:28.999Z,0
2018-04-30T02:41:39.198Z,0
2018-04-30T02:42:49.348Z,0
2018-04-30T02:43:59.501Z,0
2018-04-30T02:45:09.661Z,0
2018-04-30T02:46:19.784Z,0
2018-04-30T02:47:29.664Z,0
2018-04-30T02:48:39.551Z,0
2018-04-30T02:49:49.706Z,0
2018-04-30T02:50:59.877Z,0
2018-04-30T02:52:10.016Z,0
2018-04-30T02:53:20.002Z,0
2018-04-30T02:54:30.292Z,0
2018-04-30T02:55:40.175Z,0
2018-04-30T02:56:50.378Z,0
2018-04-30T02:58:00.526Z,0
2018-04-30T02:59:10.687Z,0
2018-04-30T03:00:20.824Z,0
2018-04-30T03:01:30.989Z,0
2018-04-30T03:02:41.183Z,0
2018-04-30T03:03:51.383Z,0
2018-04-30T03:05:01.566Z,0
2018-04-30T03:06:11.718Z,0
2018-04-30T03:07:21.864Z,0
2018-04-30T03:08:31.727Z,0
2018-04-30T03:09:41.987Z,0
2018-04-30T03:10:52.512Z,0
2018-04-30T03:12:02.720Z,0
2018-04-30T03:13:12.856Z,0
2018-04-30T03:14:22.987Z,0
2018-04-30T03:15:32.872Z,0
2018-04-30T03:16:43.036Z,0
2018-04-30T03:17:53.175Z,0
2018-04-30T03:19:03.397Z,0
2018-04-30T03:20:13.517Z,0
2018-04-30T03:21:23.534Z,0
2018-04-30T03:22:33.659Z,0
2018-04-30T03:23:43.792Z,0
2018-04-30T03:24:54.031Z,0
2018-04-30T03:26:04.298Z,0
2018-04-30T03:27:14.197Z,0
2018-04-30T03:28:23.824Z,0
2018-04-30T03:29:33.961Z,0
2018-04-30T03:30:43.919Z,0
2018-04-30T03:31:53.739Z,0
2018-04-30T03:33:03.685Z,0
2018-04-30T03:34:13.222Z,0
2018-04-30T03:35:23.217Z,0
2018-04-30T03:36:33.368Z,0
2018-04-30T03:37:43.251Z,0
2018-04-30T03:38:53.455Z,0
2018-04-30T03:40:03.575Z,0
2018-04-30T03:41:13.694Z,0
2018-04-30T03:42:23.862Z,0
2018-04-30T03:43:34.004Z,0
2018-04-30T03:44:43.949Z,5
2018-04-30T03:45:53.839Z,5
2018-04-30T03:47:03.965Z,5
2018-04-30T03:48:13.730Z,5
2018-04-30T03:49:23.873Z,5
2018-04-30T03:50:34.024Z,5
2018-04-30T03:51:43.998Z,5
2018-04-30T03:52:54.130Z,5
2018-04-30T03:54:04.270Z,10
2018-04-30T03:55:14.408Z,10
2018-04-30T03:56:24.657Z,10
2018-04-30T03:57:34.793Z,10
2018-04-30T03:58:44.751Z,10
2018-04-30T03:59:54.899Z,10
2018-04-30T04:01:05.477Z,15
2018-04-30T04:02:15.658Z,15
2018-04-30T04:03:25.898Z,15
2018-04-30T04:04:36.127Z,20
2018-04-30T04:05:46.300Z,20
2018-04-30T04:06:56.442Z,20
2018-04-30T04:08:06.570Z,20
2018-04-30T04:09:16.714Z,25
2018-04-30T04:10:26.864Z,25
2018-04-30T04:11:37.008Z,25
2018-04-30T04:12:47.535Z,30
2018-04-30T04:13:57.926Z,30
2018-04-30T04:15:07.817Z,30
2018-04-30T04:16:17.871Z,30
2018-04-30T04:17:28.118Z,35
2018-04-30T04:18:38.420Z,35
2018-04-30T04:19:48.617Z,35
2018-04-30T04:20:58.778Z,35
2018-04-30T04:22:08.685Z,40
2018-04-30T04:23:18.808Z,40
2018-04-30T04:24:29.004Z,40
2018-04-30T04:25:39.187Z,40
2018-04-30T04:26:49.311Z,40
2018-04-30T04:27:59.501Z,45
2018-04-30T04:29:09.653Z,45
2018-04-30T04:30:19.780Z,45
2018-04-30T04:31:29.947Z,50
2018-04-30T04:32:40.117Z,50
2018-04-30T04:33:49.996Z,55
2018-04-30T04:35:00.115Z,55
2018-04-30T04:36:10.258Z,55
2018-04-30T04:37:20.391Z,60
2018-04-30T04:38:30.876Z,60
2018-04-30T04:39:41.019Z,60
2018-04-30T04:40:50.947Z,60
2018-04-30T04:42:01.088Z,60
2018-04-30T04:43:11.214Z,65
2018-04-30T04:44:21.348Z,65
2018-04-30T04:45:31.609Z,65
2018-04-30T04:46:41.767Z,65
2018-04-30T04:47:51.961Z,65
2018-04-30T04:49:02.222Z,65
2018-04-30T04:50:12.489Z,70
2018-04-30T04:51:22.753Z,70
2018-04-30T04:52:32.886Z,70
2018-04-30T04:53:43.097Z,75
2018-04-30T04:54:53.302Z,75
2018-04-30T04:56:03.596Z,80
2018-04-30T04:57:13.761Z,80
2018-04-30T04:58:23.995Z,85
2018-04-30T04:59:33.851Z,85
2018-04-30T05:00:43.994Z,85
2018-04-30T05:01:54.141Z,85
2018-04-30T05:03:04.328Z,90
2018-04-30T05:04:14.439Z,90
2018-04-30T05:05:24.579Z,95
2018-04-30T05:06:34.714Z,105
2018-04-30T05:07:44.859Z,110
2018-04-30T05:08:55.054Z,115
2018-04-30T05:10:05.205Z,115
2018-04-30T05:11:15.421Z,120
2018-04-30T05:12:25.573Z,115
2018-04-30T05:13:35.453Z,115
2018-04-30T05:14:45.360Z,120
2018-04-30T05:15:55.304Z,120
2018-04-30T05:17:05.441Z,110
2018-04-30T05:18:15.444Z,110
2018-04-30T05:19:25.636Z,110
2018-04-30T05:20:35.782Z,110
2018-04-30T05:21:45.951Z,120
2018-04-30T05:22:56.144Z,125
2018-04-30T05:24:06.297Z,120
2018-04-30T05:25:16.529Z,130
2018-04-30T05:26:26.671Z,135
2018-04-30T05:27:36.793Z,135
2018-04-30T05:28:46.972Z,140
2018-04-30T05:29:57.103Z,130
2018-04-30T05:31:07.234Z,130
2018-04-30T05:32:17.383Z,130
2018-04-30T05:33:27.562Z,130
2018-04-30T05:34:37.697Z,110
2018-04-30T05:35:47.809Z,105
2018-04-30T05:36:58.002Z,115
2018-04-30T05:38:07.883Z,100
2018-04-30T05:39:18.013Z,100
2018-04-30T05:40:27.527Z,100
2018-04-30T05:41:37.739Z,100
2018-04-30T05:42:47.760Z,105
2018-04-30T05:43:57.650Z,100
2018-04-30T05:45:07.898Z,95
2018-04-30T05:46:18.230Z,95
2018-04-30T05:47:28.515Z,95
2018-04-30T05:48:38.689Z,100
2018-04-30T05:49:48.486Z,100
2018-04-30T05:50:58.640Z,100
2018-04-30T05:52:08.809Z,100
2018-04-30T05:53:19.016Z,105
2018-04-30T05:54:29.190Z,105
2018-04-30T05:55:39.475Z,110
2018-04-30T05:56:49.613Z,145
2018-04-30T05:57:59.835Z,145
2018-04-30T05:59:10.079Z,115
2018-04-30T06:00:20.009Z,120
2018-04-30T06:01:29.914Z,135
2018-04-30T06:02:40.079Z,150
2018-04-30T06:03:50.018Z,165
2018-04-30T06:04:59.614Z,160
2018-04-30T06:06:09.757Z,160
2018-04-30T06:07:19.542Z,165
2018-04-30T06:08:29.673Z,165
2018-04-30T06:09:39.797Z,165
2018-04-30T06:10:49.653Z,165
2018-04-30T06:11:59.822Z,170
2018-04-30T06:13:09.980Z,175
2018-04-30T06:14:20.116Z,175
2018-04-30T06:15:30.292Z,175
2018-04-30T06:16:40.435Z,175
2018-04-30T06:17:50.576Z,180
2018-04-30T06:19:00.701Z,180
2018-04-30T06:20:10.864Z,180
2018-04-30T06:21:21.110Z,185
2018-04-30T06:22:31.276Z,190
2018-04-30T06:23:41.448Z,185
2018-04-30T06:24:51.679Z,185
2018-04-30T06:26:01.836Z,185
2018-04-30T06:27:12.103Z,185
2018-04-30T06:28:22.330Z,190
2018-04-30T06:29:32.539Z,190
2018-04-30T06:30:42.830Z,185
2018-04-30T06:31:53.082Z,190
2018-04-30T06:33:03.231Z,190
2018-04-30T06:34:13.409Z,175
2018-04-30T06:35:23.620Z,195
2018-04-30T06:36:33.882Z,190
2018-04-30T06:37:44.050Z,195
2018-04-30T06:38:54.241Z,195
2018-04-30T06:40:04.564Z,200
2018-04-30T06:41:14.827Z,200
2018-04-30T06:42:25.085Z,200
2018-04-30T06:43:35.272Z,205
2018-04-30T06:44:45.156Z,205
2018-04-30T06:45:55.303Z,205
2018-04-30T06:47:05.479Z,205
2018-04-30T06:48:15.774Z,205
2018-04-30T06:49:25.929Z,205
2018-04-30T06:50:36.079Z,210
2018-04-30T06:51:46.036Z,210
2018-04-30T06:52:56.181Z,210
2018-04-30T06:54:06.308Z,210
2018-04-30T06:55:16.455Z,215
2018-04-30T06:56:26.682Z,215
2018-04-30T06:57:36.658Z,220
2018-04-30T06:58:46.543Z,215
2018-04-30T06:59:56.697Z,220
2018-04-30T07:01:06.606Z,220
2018-04-30T07:02:16.864Z,220
2018-04-30T07:03:27.037Z,225
2018-04-30T07:04:37.218Z,235
2018-04-30T07:05:47.436Z,225
2018-04-30T07:06:57.647Z,200
2018-04-30T07:08:07.866Z,230
2018-04-30T07:09:18.820Z,235
2018-04-30T07:10:28.662Z,240
2018-04-30T07:11:38.808Z,245
2018-04-30T07:12:48.955Z,250
2018-04-30T07:13:58.823Z,255
2018-04-30T07:15:08.959Z,260
2018-04-30T07:16:19.123Z,260
2018-04-30T07:17:29.341Z,260
2018-04-30T07:18:39.536Z,265
2018-04-30T07:19:49.703Z,270
2018-04-30T07:20:59.851Z,275
2018-04-30T07:22:11.486Z,285
2018-04-30T07:23:22.950Z,305
2018-04-30T07:24:32.621Z,315
2018-04-30T07:25:42.759Z,320
2018-04-30T07:26:52.898Z,325
2018-04-30T07:28:05.675Z,310
2018-04-30T07:29:16.888Z,310
2018-04-30T07:30:27.093Z,320
2018-04-30T07:31:37.241Z,330
2018-04-30T07:32:47.521Z,345
2018-04-30T07:33:57.686Z,370
2018-04-30T07:35:07.819Z,400
2018-04-30T07:36:18.116Z,405
2018-04-30T07:37:28.269Z,395
2018-04-30T07:38:38.488Z,385
2018-04-30T07:39:48.670Z,355
2018-04-30T07:40:58.848Z,355
2018-04-30T07:42:09.038Z,310
2018-04-30T07:43:19.179Z,300
2018-04-30T07:44:29.365Z,295
2018-04-30T07:45:39.546Z,325
2018-04-30T07:46:49.682Z,380
2018-04-30T07:47:59.829Z,375
2018-04-30T07:49:09.829Z,380
2018-04-30T07:50:19.991Z,360
2018-04-30T07:51:30.134Z,395
2018-04-30T07:52:40.371Z,400
2018-04-30T07:53:50.549Z,410
2018-04-30T07:55:00.805Z,410
2018-04-30T07:56:11.005Z,415
2018-04-30T07:57:21.122Z,410
2018-04-30T07:58:31.509Z,410
2018-04-30T07:59:41.647Z,415
2018-04-30T08:00:51.801Z,415
2018-04-30T08:02:02.005Z,415
2018-04-30T08:03:12.625Z,425
2018-04-30T08:04:22.831Z,425
2018-04-30T08:05:32.716Z,435
2018-04-30T08:06:42.986Z,450
2018-04-30T08:07:53.206Z,460
2018-04-30T08:09:03.431Z,470
2018-04-30T08:10:13.685Z,480
2018-04-30T08:11:23.588Z,505
2018-04-30T08:12:33.731Z,520
2018-04-30T08:13:43.881Z,520
2018-04-30T08:14:54.144Z,510
2018-04-30T08:16:03.968Z,515
2018-04-30T08:17:13.857Z,530
2018-04-30T08:18:24.007Z,620
2018-04-30T08:19:34.146Z,675
2018-04-30T08:20:44.082Z,740
2018-04-30T08:21:54.259Z,590
2018-04-30T08:23:03.881Z,640
2018-04-30T08:24:14.018Z,735
2018-04-30T08:25:24.176Z,760
2018-04-30T08:26:34.311Z,820
2018-04-30T08:27:44.459Z,870
2018-04-30T08:28:54.605Z,925
2018-04-30T08:30:04.825Z,940
2018-04-30T08:31:14.834Z,795
2018-04-30T08:32:24.998Z,905
2018-04-30T08:33:34.870Z,940
2018-04-30T08:34:45.038Z,1005
2018-04-30T08:35:55.196Z,745
2018-04-30T08:37:05.386Z,1050
2018-04-30T08:38:15.570Z,510
2018-04-30T08:39:25.978Z,420
2018-04-30T08:40:35.955Z,400
2018-04-30T08:41:46.193Z,335
2018-04-30T08:42:56.383Z,295
2018-04-30T08:44:06.613Z,315
2018-04-30T08:45:17.014Z,365
2018-04-30T08:46:27.197Z,395
2018-04-30T08:47:37.352Z,465
2018-04-30T08:48:47.249Z,570
2018-04-30T08:49:57.395Z,350
2018-04-30T08:51:07.578Z,320
2018-04-30T08:52:18.206Z,280
2018-04-30T08:53:27.980Z,260
2018-04-30T08:54:37.800Z,250
2018-04-30T08:55:47.718Z,245
2018-04-30T08:56:57.885Z,240
2018-04-30T08:58:08.076Z,230
2018-04-30T08:59:18.205Z,185
2018-04-30T09:00:28.456Z,180
2018-04-30T09:01:38.673Z,180
2018-04-30T09:02:48.825Z,185
2018-04-30T09:03:58.939Z,180
2018-04-30T09:05:09.270Z,150
2018-04-30T09:06:19.516Z,140
2018-04-30T09:07:29.692Z,120
2018-04-30T09:08:39.647Z,125
2018-04-30T09:09:50.363Z,150
2018-04-30T09:11:00.529Z,145
2018-04-30T09:12:10.682Z,110
2018-04-30T09:13:20.815Z,90
2018-04-30T09:14:30.987Z,80
2018-04-30T09:15:41.278Z,75
2018-04-30T09:16:51.218Z,85
2018-04-30T09:18:01.140Z,100
2018-04-30T09:19:11.282Z,120
2018-04-30T09:20:21.206Z,115
2018-04-30T09:21:31.391Z,110
2018-04-30T09:22:41.608Z,115
2018-04-30T09:23:51.956Z,130
2018-04-30T09:25:02.511Z,140
2018-04-30T09:26:12.669Z,135
2018-04-30T09:27:22.848Z,125
2018-04-30T09:28:33.060Z,130
2018-04-30T09:29:43.252Z,135
2018-04-30T09:30:53.236Z,140
2018-04-30T09:32:03.458Z,140
2018-04-30T09:33:13.613Z,140
2018-04-30T09:34:23.581Z,135
2018-04-30T09:35:33.778Z,130
2018-04-30T09:36:43.975Z,135
2018-04-30T09:37:54.118Z,140
2018-04-30T09:39:04.284Z,145
2018-04-30T09:40:14.252Z,160
2018-04-30T09:41:24.472Z,175
2018-04-30T09:42:34.724Z,195
2018-04-30T09:43:44.529Z,235
2018-04-30T09:44:54.717Z,295
2018-04-30T09:46:05.127Z,370
2018-04-30T09:47:15.164Z,405
2018-04-30T09:48:25.413Z,410
2018-04-30T09:49:35.857Z,405
2018-04-30T09:50:46.045Z,395
2018-04-30T09:51:56.264Z,395
2018-04-30T09:53:06.478Z,395
2018-04-30T09:54:16.618Z,400
2018-04-30T09:55:26.811Z,405
2018-04-30T09:56:37.009Z,405
2018-04-30T09:57:47.502Z,385
2018-04-30T09:58:57.650Z,370
2018-04-30T10:00:07.692Z,380
2018-04-30T10:01:17.926Z,385
2018-04-30T10:02:28.137Z,390
2018-04-30T10:03:38.289Z,400
2018-04-30T10:04:48.520Z,415
2018-04-30T10:05:58.703Z,420
2018-04-30T10:07:08.920Z,425
2018-04-30T10:08:19.158Z,445
2018-04-30T10:09:29.489Z,480
2018-04-30T10:10:39.745Z,570
2018-04-30T10:11:49.940Z,690
2018-04-30T10:13:00.114Z,1730
2018-04-30T10:14:10.264Z,805
2018-04-30T10:15:20.183Z,595
2018-04-30T10:16:30.296Z,485
2018-04-30T10:17:40.484Z,495
2018-04-30T10:18:50.683Z,635
2018-04-30T10:20:00.918Z,695
2018-04-30T10:21:11.165Z,665
2018-04-30T10:22:21.315Z,575
2018-04-30T10:23:31.829Z,515
2018-04-30T10:24:41.978Z,430
2018-04-30T10:25:52.133Z,370
2018-04-30T10:27:02.287Z,350
2018-04-30T10:28:12.489Z,340
2018-04-30T10:29:22.723Z,335
2018-04-30T10:30:32.863Z,325
2018-04-30T10:31:43.086Z,345
2018-04-30T10:32:53.474Z,335
2018-04-30T10:34:03.656Z,280
2018-04-30T10:35:13.885Z,215
2018-04-30T10:36:23.779Z,190
2018-04-30T10:37:33.947Z,190
2018-04-30T10:38:44.091Z,220
2018-04-30T10:39:54.268Z,240
2018-04-30T10:41:04.425Z,255
2018-04-30T10:42:14.623Z,270
2018-04-30T10:43:24.892Z,310
2018-04-30T10:44:35.220Z,355
2018-04-30T10:45:45.664Z,425
2018-04-30T10:46:55.846Z,530
2018-04-30T10:48:06.017Z,700
2018-04-30T10:49:16.171Z,795
2018-04-30T10:50:27.304Z,720
2018-04-30T10:51:37.662Z,730
2018-04-30T10:52:47.822Z,725
2018-04-30T10:53:57.968Z,910
2018-04-30T10:55:09.081Z,855
2018-04-30T10:56:19.289Z,1050
2018-04-30T10:57:29.516Z,1975
2018-04-30T10:58:39.846Z,880
2018-04-30T10:59:50.122Z,450
2018-04-30T11:00:59.920Z,285
2018-04-30T11:02:10.123Z,225
2018-04-30T11:03:20.256Z,205
2018-04-30T11:04:30.456Z,205
2018-04-30T11:05:40.664Z,225
2018-04-30T11:06:50.803Z,235
2018-04-30T11:08:00.600Z,255
2018-04-30T11:09:10.738Z,305
2018-04-30T11:10:20.898Z,365
2018-04-30T11:11:31.145Z,405
2018-04-30T11:12:42.563Z,415
2018-04-30T11:13:52.767Z,460
2018-04-30T11:15:02.675Z,455
2018-04-30T11:16:12.561Z,405
2018-04-30T11:17:22.779Z,395
2018-04-30T11:18:32.980Z,405
2018-04-30T11:19:42.884Z,420
2018-04-30T11:20:53.042Z,445
2018-04-30T11:22:03.245Z,540
2018-04-30T11:23:13.160Z,700
2018-04-30T11:24:23.070Z,1345
2018-04-30T11:25:33.275Z,1085
2018-04-30T11:26:43.505Z,1750
2018-04-30T11:27:53.759Z,1035
2018-04-30T11:29:03.926Z,2855
2018-04-30T11:30:14.061Z,2245
2018-04-30T11:31:24.206Z,1935
2018-04-30T11:32:34.009Z,2625
2018-04-30T11:33:44.432Z,1215
2018-04-30T11:34:54.658Z,885
2018-04-30T11:36:04.881Z,730
2018-04-30T11:37:15.173Z,515
2018-04-30T11:38:25.362Z,365
2018-04-30T11:39:35.591Z,290
2018-04-30T11:40:45.858Z,270
2018-04-30T11:41:55.781Z,255
2018-04-30T11:43:07.306Z,260
2018-04-30T11:44:19.233Z,320
2018-04-30T11:45:29.889Z,485
2018-04-30T11:46:40.086Z,1490
2018-04-30T11:47:50.240Z,2510
2018-04-30T11:49:00.475Z,3255
2018-04-30T11:50:10.740Z,2865
2018-04-30T11:51:20.963Z,2680
2018-04-30T11:52:31.150Z,2365
2018-04-30T11:53:41.344Z,1840
2018-04-30T11:54:51.543Z,1945
2018-04-30T11:56:01.767Z,1900
2018-04-30T11:57:12.974Z,920
2018-04-30T11:58:23.317Z,1440
2018-04-30T11:59:33.215Z,1230
2018-04-30T12:00:42.975Z,965
2018-04-30T12:01:53.177Z,1805
2018-04-30T12:03:03.433Z,1205
2018-04-30T12:04:13.684Z,1750
2018-04-30T12:05:23.920Z,2355
2018-04-30T12:06:34.147Z,1405
2018-04-30T12:07:44.374Z,995
2018-04-30T12:08:54.580Z,1420
2018-04-30T12:10:05.796Z,1460
2018-04-30T12:11:17.103Z,1420
2018-04-30T12:12:27.665Z,1765
2018-04-30T12:13:37.602Z,2190
2018-04-30T12:14:47.202Z,2235
2018-04-30T12:15:57.446Z,3575
2018-04-30T12:17:07.675Z,3295
2018-04-30T12:18:17.930Z,3115
2018-04-30T12:19:28.181Z,1380
2018-04-30T12:20:41.836Z,1195
2018-04-30T12:21:55.277Z,3615
2018-04-30T12:23:05.280Z,1180
2018-04-30T12:24:15.212Z,1135
2018-04-30T12:25:25.441Z,1375
2018-04-30T12:26:35.661Z,3380
2018-04-30T12:27:45.871Z,2725
2018-04-30T12:28:55.833Z,2820
2018-04-30T12:30:06.061Z,2050
2018-04-30T12:31:16.249Z,1255
2018-04-30T12:32:26.428Z,2385
2018-04-30T12:33:36.747Z,1960
2018-04-30T12:34:47.093Z,1495
2018-04-30T12:35:59.055Z,1050
2018-04-30T12:37:10.318Z,1910
2018-04-30T12:38:20.846Z,2980
2018-04-30T12:39:31.049Z,3645
2018-04-30T12:40:40.895Z,1540
2018-04-30T12:41:51.102Z,1775
2018-04-30T12:43:01.092Z,2670
2018-04-30T12:44:11.416Z,2855
2018-04-30T12:45:22.759Z,2815
2018-04-30T12:46:33.018Z,2910
2018-04-30T12:47:43.218Z,3180
2018-04-30T12:48:53.416Z,3235
2018-04-30T12:50:03.611Z,3235
2018-04-30T12:51:13.836Z,3125
2018-04-30T12:52:24.029Z,3100
2018-04-30T12:53:34.237Z,3305
2018-04-30T12:54:44.442Z,3140
2018-04-30T12:55:54.689Z,2945
2018-04-30T12:57:08.271Z,2725
2018-04-30T12:58:18.491Z,2620
2018-04-30T12:59:28.816Z,2595
2018-04-30T13:00:39.059Z,2570
2018-04-30T13:01:49.037Z,2570
2018-04-30T13:02:59.007Z,2590
2018-04-30T13:04:10.696Z,2675
2018-04-30T13:05:22.594Z,2685
2018-04-30T13:06:33.115Z,2740
2018-04-30T13:07:43.833Z,2805
2018-04-30T13:08:54.448Z,2865
2018-04-30T13:10:04.674Z,2915
2018-04-30T13:11:14.908Z,2895
2018-04-30T13:12:25.182Z,2825
2018-04-30T13:13:35.157Z,2700
2018-04-30T13:14:45.447Z,660
2018-04-30T13:15:55.442Z,2015
2018-04-30T13:17:05.673Z,520
2018-04-30T13:18:15.861Z,2760
2018-04-30T13:19:26.118Z,2955
2018-04-30T13:20:36.293Z,1350
2018-04-30T13:21:46.537Z,515
2018-04-30T13:22:56.736Z,485
2018-04-30T13:24:06.887Z,530
2018-04-30T13:25:17.085Z,2995
2018-04-30T13:26:27.260Z,2730
2018-04-30T13:27:37.450Z,2145
2018-04-30T13:28:47.992Z,995
2018-04-30T13:29:58.157Z,1125
2018-04-30T13:31:09.309Z,835
2018-04-30T13:32:19.497Z,1100
2018-04-30T13:33:29.686Z,1015
2018-04-30T13:34:39.846Z,2700
2018-04-30T13:35:50.090Z,2505
2018-04-30T13:37:00.329Z,2515
2018-04-30T13:38:10.500Z,2515
2018-04-30T13:39:20.703Z,2590
2018-04-30T13:40:31.834Z,2800
2018-04-30T13:41:41.856Z,2755
2018-04-30T13:42:52.095Z,2705
2018-04-30T13:44:02.250Z,2595
2018-04-30T13:45:12.164Z,2485
2018-04-30T13:46:22.630Z,2435
2018-04-30T13:47:33.013Z,485
2018-04-30T13:48:43.330Z,2325
2018-04-30T13:49:53.549Z,570
2018-04-30T13:51:03.844Z,2205
2018-04-30T13:52:14.139Z,570
2018-04-30T13:53:24.338Z,1490
2018-04-30T13:54:34.673Z,2455
2018-04-30T13:55:44.840Z,385
2018-04-30T13:56:54.503Z,325
2018-04-30T13:58:04.410Z,500
2018-04-30T13:59:14.560Z,2090
2018-04-30T14:00:24.465Z,435
2018-04-30T14:01:34.684Z,2435
2018-04-30T14:02:44.876Z,385
2018-04-30T14:03:55.031Z,405
2018-04-30T14:05:05.193Z,480
2018-04-30T14:06:15.379Z,1455
2018-04-30T14:07:25.543Z,550
2018-04-30T14:08:35.447Z,530
2018-04-30T14:09:45.088Z,795
2018-04-30T14:10:55.231Z,835
2018-04-30T14:12:05.420Z,2405
2018-04-30T14:13:15.717Z,2300
2018-04-30T14:14:25.601Z,2220
2018-04-30T14:15:35.751Z,2170
2018-04-30T14:16:45.926Z,2195
2018-04-30T14:17:56.126Z,2255
2018-04-30T14:19:06.285Z,2265
2018-04-30T14:20:16.506Z,1810
2018-04-30T14:21:26.859Z,865
2018-04-30T14:22:37.047Z,710
2018-04-30T14:23:47.069Z,660
2018-04-30T14:24:57.259Z,1815
2018-04-30T14:26:08.391Z,2500
2018-04-30T14:27:18.552Z,600
2018-04-30T14:28:28.744Z,625
2018-04-30T14:29:38.935Z,700
2018-04-30T14:30:49.140Z,2115
2018-04-30T14:31:59.082Z,2025
2018-04-30T14:33:09.275Z,1940
2018-04-30T14:34:19.095Z,340
2018-04-30T14:35:29.376Z,355
2018-04-30T14:36:39.626Z,1195
2018-04-30T14:37:49.873Z,1860
2018-04-30T14:39:00.032Z,580
2018-04-30T14:40:10.313Z,535
2018-04-30T14:41:20.195Z,415
2018-04-30T14:42:30.361Z,2030
2018-04-30T14:43:40.521Z,1940
2018-04-30T14:44:50.861Z,750
2018-04-30T14:46:01.007Z,270
2018-04-30T14:47:11.193Z,1770
2018-04-30T14:48:21.380Z,1415
2018-04-30T14:49:31.549Z,325
2018-04-30T14:50:41.496Z,670
2018-04-30T14:51:52.631Z,230
2018-04-30T14:53:02.809Z,320
2018-04-30T14:54:13.020Z,1710
2018-04-30T14:55:23.249Z,1805
2018-04-30T14:56:33.429Z,1790
2018-04-30T14:57:43.671Z,1765
2018-04-30T14:58:53.872Z,1785
2018-04-30T15:00:04.048Z,1790
2018-04-30T15:01:14.318Z,330
2018-04-30T15:02:24.549Z,315
2018-04-30T15:03:34.726Z,310
2018-04-30T15:04:44.298Z,285
2018-04-30T15:05:54.454Z,260
2018-04-30T15:07:04.634Z,265
2018-04-30T15:08:14.284Z,270
2018-04-30T15:09:24.449Z,325
2018-04-30T15:10:34.715Z,350
2018-04-30T15:11:44.653Z,320
2018-04-30T15:12:54.830Z,305
2018-04-30T15:14:04.976Z,1510
2018-04-30T15:15:15.141Z,1435
2018-04-30T15:16:25.287Z,1395
2018-04-30T15:17:35.454Z,1450
2018-04-30T15:18:45.611Z,1560
2018-04-30T15:19:55.859Z,1555
2018-04-30T15:21:06.111Z,1430
2018-04-30T15:22:16.007Z,1365
2018-04-30T15:23:26.190Z,1320
2018-04-30T15:24:36.344Z,1310
2018-04-30T15:25:46.502Z,1395
2018-04-30T15:26:56.717Z,1485
2018-04-30T15:28:06.812Z,1440
2018-04-30T15:29:17.119Z,1045
2018-04-30T15:30:27.303Z,705
2018-04-30T15:31:37.500Z,475
2018-04-30T15:32:47.772Z,355
2018-04-30T15:33:57.967Z,320
2018-04-30T15:35:08.188Z,300
2018-04-30T15:36:18.357Z,285
2018-04-30T15:37:28.546Z,270
2018-04-30T15:38:38.725Z,255
2018-04-30T15:39:48.899Z,240
2018-04-30T15:40:58.820Z,235
2018-04-30T15:42:09.412Z,230
2018-04-30T15:43:19.250Z,225
2018-04-30T15:44:29.229Z,225
2018-04-30T15:45:39.403Z,220
2018-04-30T15:46:49.316Z,215
2018-04-30T15:47:59.236Z,215
2018-04-30T15:49:09.447Z,215
2018-04-30T15:50:19.615Z,215
2018-04-30T15:51:29.828Z,215
2018-04-30T15:52:39.740Z,215
2018-04-30T15:53:49.899Z,215
2018-04-30T15:55:00.069Z,215
2018-04-30T15:56:10.232Z,210
2018-04-30T15:57:20.458Z,210
2018-04-30T15:58:30.731Z,210
2018-04-30T15:59:40.971Z,215
2018-04-30T16:00:50.916Z,205
2018-04-30T16:02:01.105Z,205
2018-04-30T16:03:11.238Z,200
2018-04-30T16:04:21.390Z,195
2018-04-30T16:05:31.191Z,185
2018-04-30T16:06:41.080Z,185
2018-04-30T16:07:50.998Z,185
2018-04-30T16:09:01.219Z,185
2018-04-30T16:10:11.466Z,185
2018-04-30T16:11:21.658Z,180
2018-04-30T16:12:31.560Z,180
2018-04-30T16:13:41.721Z,180
2018-04-30T16:14:51.929Z,180
2018-04-30T16:16:03.080Z,180
2018-04-30T16:17:13.284Z,175
2018-04-30T16:18:23.534Z,175